Columbia — WDD6400 — position and weather

sailwx.info

Track history (hours):
 
Tides and Currents Weather Stations Pressure Air Temp Water Temp Dewpoint Dewpoint Depression Visibility Wind Speed Wind Dir Waves Ship Positions

Columbia

Owner: OSG Ship Management Inc., Tampa, FL. More information available from US FCC via Universal Licensing System and Coast Guard Vessel Documentation Center.

Last reported at 2016-May-24 07:32 UTC. Time now 2016-May-24 08:07 UTC.
Position N 30°11' W 093°19'.

Length 194 m; draft 5.9 m.

Type: Towing. MMSI: 367172440.

Date/timePositionNaut miles runAvg speedWind from/ knotsBaromVisibWave heightAir tempDewpointWater temp
2016-May-24 07:32N 30°11' W 093°19'0 0.0
2016-May-24 06:32N 30°11' W 093°19'0 0.0
2016-May-24 05:32N 30°11' W 093°19'0 0.0
2016-May-24 04:32N 30°11' W 093°19'0 0.0
2016-May-24 03:32N 30°11' W 093°19'0 0.0
2016-May-24 02:32N 30°11' W 093°19'0 0.0
2016-May-24 01:32N 30°11' W 093°19'0 0.0
2016-May-24 00:32N 30°11' W 093°19'0 0.0
2016-May-23 23:32N 30°11' W 093°19'0 0.0
2016-May-23 22:32N 30°11' W 093°19'0 0.0
2016-May-23 21:32N 30°11' W 093°19'0 0.0
2016-May-23 20:32N 30°11' W 093°19'0 0.0
2016-May-23 19:32N 30°11' W 093°19'0 0.0
2016-May-23 18:32N 30°11' W 093°19'0 0.0
2016-May-23 17:32N 30°11' W 093°19'0 0.0
2016-May-23 16:32N 30°11' W 093°19'0 0.0
2016-May-23 15:32N 30°11' W 093°19'0 0.0
2016-May-23 14:32N 30°11' W 093°19'0 0.0
2016-May-23 13:32N 30°11' W 093°19'0 0.0
2016-May-23 12:32N 30°11' W 093°19'0 0.0
2016-May-23 11:32N 30°11' W 093°19'0 0.0
2016-May-23 10:32N 30°11' W 093°19'0 0.0
2016-May-23 09:32N 30°11' W 093°19'0 0.0
2016-May-23 08:32N 30°11' W 093°19'0 0.0
2016-May-23 07:31N 30°11' W 093°19'0 0.0
2016-May-23 06:31N 30°11' W 093°19'0 0.0
2016-May-23 05:31N 30°11' W 093°19'0 0.0
2016-May-23 04:31N 30°11' W 093°19'0 0.0
2016-May-23 03:31N 30°11' W 093°19'0 0.0
2016-May-23 02:31N 30°11' W 093°19'0 0.0
2016-May-23 01:31N 30°11' W 093°19'0 0.0
2016-May-23 00:31N 30°11' W 093°19'0 0.0
2016-May-22 23:31N 30°11' W 093°19'0 0.0
2016-May-22 22:31N 30°11' W 093°19'0 0.0
2016-May-22 21:31N 30°11' W 093°19'0 0.0
2016-May-22 20:31N 30°11' W 093°19'0 0.0
2016-May-22 19:31N 30°11' W 093°19'0 0.0
2016-May-22 18:31N 30°11' W 093°19'0 0.4
2016-May-22 17:31N 30°11' W 093°19'0 0.0
2016-May-22 16:31N 30°11' W 093°19'0 0.0
2016-May-22 15:31N 30°11' W 093°19'0 0.0
2016-May-22 14:31N 30°11' W 093°19'0 0.0
2016-May-22 13:31N 30°11' W 093°19'0 0.0
2016-May-22 12:31N 30°11' W 093°19'0 0.0
2016-May-22 11:31N 30°11' W 093°19'0 0.0
2016-May-22 10:31N 30°11' W 093°19'0 0.5
2016-May-22 09:33N 30°11' W 093°19'6 5.8
2016-May-22 08:34N 30°05' W 093°20'7 7.2
2016-May-22 07:33N 29°58' W 093°20'9 8.8
2016-May-22 06:34N 29°49' W 093°21'8 8.2
2016-May-22 05:33N 29°41' W 093°20'23 9.8
2016-May-22 03:14N 29°19' W 093°13'7 9.8
2016-May-22 02:32N 29°12' W 093°12'  
2016-May-19 03:33N 27°48' W 082°28'8 7.7
2016-May-19 02:33N 27°56' W 082°27'1 0.1
2016-May-18 16:33N 27°57' W 082°27'0 0.0
2016-May-18 15:33N 27°57' W 082°27'0 0.0
2016-May-18 14:33N 27°57' W 082°27'0 0.0
2016-May-18 13:33N 27°57' W 082°27'0 0.0
2016-May-18 12:33N 27°57' W 082°27'16 0.8
2016-May-17 18:08N 27°42' W 082°33'  
Track history (hours):
 
Tides and Currents Weather Stations Pressure Air Temp Water Temp Dewpoint Dewpoint Depression Visibility Wind Speed Wind Dir Waves Ship Positions

Columbia

Owner: OSG Ship Management Inc., Tampa, FL. More information available from US FCC via Universal Licensing System and Coast Guard Vessel Documentation Center.

Last reported at 2016-May-24 07:32 UTC. Time now 2016-May-24 08:07 UTC.
Position N 30°11' W 093°19'.

Length 194 m; draft 5.9 m.

Type: Towing. MMSI: 367172440.

Date/timePositionNaut miles runAvg speedWind from/ knotsBaromVisibWave heightAir tempDewpointWater temp
2016-May-24 07:32N 30°11' W 093°19'0 0.0
2016-May-24 06:32N 30°11' W 093°19'0 0.0
2016-May-24 05:32N 30°11' W 093°19'0 0.0
2016-May-24 04:32N 30°11' W 093°19'0 0.0
2016-May-24 03:32N 30°11' W 093°19'0 0.0
2016-May-24 02:32N 30°11' W 093°19'0 0.0
2016-May-24 01:32N 30°11' W 093°19'0 0.0
2016-May-24 00:32N 30°11' W 093°19'0 0.0
2016-May-23 23:32N 30°11' W 093°19'0 0.0
2016-May-23 22:32N 30°11' W 093°19'0 0.0
2016-May-23 21:32N 30°11' W 093°19'0 0.0
2016-May-23 20:32N 30°11' W 093°19'0 0.0
2016-May-23 19:32N 30°11' W 093°19'0 0.0
2016-May-23 18:32N 30°11' W 093°19'0 0.0
2016-May-23 17:32N 30°11' W 093°19'0 0.0
2016-May-23 16:32N 30°11' W 093°19'0 0.0
2016-May-23 15:32N 30°11' W 093°19'0 0.0
2016-May-23 14:32N 30°11' W 093°19'0 0.0
2016-May-23 13:32N 30°11' W 093°19'0 0.0
2016-May-23 12:32N 30°11' W 093°19'0 0.0
2016-May-23 11:32N 30°11' W 093°19'0 0.0
2016-May-23 10:32N 30°11' W 093°19'0 0.0
2016-May-23 09:32N 30°11' W 093°19'0 0.0
2016-May-23 08:32N 30°11' W 093°19'0 0.0
2016-May-23 07:31N 30°11' W 093°19'0 0.0
2016-May-23 06:31N 30°11' W 093°19'0 0.0
2016-May-23 05:31N 30°11' W 093°19'0 0.0
2016-May-23 04:31N 30°11' W 093°19'0 0.0
2016-May-23 03:31N 30°11' W 093°19'0 0.0
2016-May-23 02:31N 30°11' W 093°19'0 0.0
2016-May-23 01:31N 30°11' W 093°19'0 0.0
2016-May-23 00:31N 30°11' W 093°19'0 0.0
2016-May-22 23:31N 30°11' W 093°19'0 0.0
2016-May-22 22:31N 30°11' W 093°19'0 0.0
2016-May-22 21:31N 30°11' W 093°19'0 0.0
2016-May-22 20:31N 30°11' W 093°19'0 0.0
2016-May-22 19:31N 30°11' W 093°19'0 0.0
2016-May-22 18:31N 30°11' W 093°19'0 0.4
2016-May-22 17:31N 30°11' W 093°19'0 0.0
2016-May-22 16:31N 30°11' W 093°19'0 0.0
2016-May-22 15:31N 30°11' W 093°19'0 0.0
2016-May-22 14:31N 30°11' W 093°19'0 0.0
2016-May-22 13:31N 30°11' W 093°19'0 0.0
2016-May-22 12:31N 30°11' W 093°19'0 0.0
2016-May-22 11:31N 30°11' W 093°19'0 0.0
2016-May-22 10:31N 30°11' W 093°19'0 0.5
2016-May-22 09:33N 30°11' W 093°19'6 5.8
2016-May-22 08:34N 30°05' W 093°20'7 7.2
2016-May-22 07:33N 29°58' W 093°20'9 8.8
2016-May-22 06:34N 29°49' W 093°21'8 8.2
2016-May-22 05:33N 29°41' W 093°20'23 9.8
2016-May-22 03:14N 29°19' W 093°13'7 9.8
2016-May-22 02:32N 29°12' W 093°12'  
2016-May-19 03:33N 27°48' W 082°28'8 7.7
2016-May-19 02:33N 27°56' W 082°27'1 0.1
2016-May-18 16:33N 27°57' W 082°27'0 0.0
2016-May-18 15:33N 27°57' W 082°27'0 0.0
2016-May-18 14:33N 27°57' W 082°27'0 0.0
2016-May-18 13:33N 27°57' W 082°27'0 0.0
2016-May-18 12:33N 27°57' W 082°27'16 0.8
2016-May-17 18:08N 27°42' W 082°33'  

Dump ship's entire track history